sensor_id;sensor_type;location;lat;lon;timestamp;pressure;altitude;pressure_sealevel;temperature;humidity
56671;BME280;42545;50.054;8.306;2023-04-08T00:02:16;100358.44;;;5.99;100.00
56671;BME280;42545;50.054;8.306;2023-04-08T00:04:43;100354.22;;;6.02;100.00
56671;BME280;42545;50.054;8.306;2023-04-08T00:07:09;100364.94;;;6.08;100.00
56671;BME280;42545;50.054;8.306;2023-04-08T00:09:37;100357.19;;;6.11;100.00
56671;BME280;42545;50.054;8.306;2023-04-08T00:12:04;100359.06;;;6.14;100.00
56671;BME280;42545;50.054;8.306;2023-04-08T00:14:33;100343.41;;;6.15;100.00
56671;BME280;42545;50.054;8.306;2023-04-08T00:17:00;100353.09;;;6.18;100.00
56671;BME280;42545;50.054;8.306;2023-04-08T00:19:26;100358.41;;;6.20;100.00
56671;BME280;42545;50.054;8.306;2023-04-08T00:21:53;100350.59;;;6.21;100.00
56671;BME280;42545;50.054;8.306;2023-04-08T00:24:20;100360.19;;;6.21;100.00
56671;BME280;42545;50.054;8.306;2023-04-08T00:26:46;100353.16;;;6.20;100.00
56671;BME280;42545;50.054;8.306;2023-04-08T00:29:13;100365.38;;;6.19;100.00
56671;BME280;42545;50.054;8.306;2023-04-08T00:31:41;100363.50;;;6.16;100.00
56671;BME280;42545;50.054;8.306;2023-04-08T00:34:07;100359.06;;;6.14;100.00
56671;BME280;42545;50.054;8.306;2023-04-08T00:36:34;100364.28;;;6.14;100.00
56671;BME280;42545;50.054;8.306;2023-04-08T00:39:01;100358.09;;;6.12;100.00
56671;BME280;42545;50.054;8.306;2023-04-08T00:41:28;100361.47;;;6.09;100.00
56671;BME280;42545;50.054;8.306;2023-04-08T00:43:55;100360.59;;;6.09;100.00
56671;BME280;42545;50.054;8.306;2023-04-08T00:46:21;100361.38;;;6.06;100.00
56671;BME280;42545;50.054;8.306;2023-04-08T00:48:50;100359.50;;;6.04;100.00
56671;BME280;42545;50.054;8.306;2023-04-08T00:51:16;100360.22;;;6.00;100.00
56671;BME280;42545;50.054;8.306;2023-04-08T00:53:43;100366.41;;;6.02;100.00
56671;BME280;42545;50.054;8.306;2023-04-08T00:56:10;100368.88;;;5.97;100.00
56671;BME280;42545;50.054;8.306;2023-04-08T00:58:37;100371.50;;;5.97;100.00
56671;BME280;42545;50.054;8.306;2023-04-08T01:01:08;100364.47;;;5.96;100.00
56671;BME280;42545;50.054;8.306;2023-04-08T01:03:45;100368.81;;;5.95;100.00
56671;BME280;42545;50.054;8.306;2023-04-08T01:06:26;100374.75;;;5.93;100.00
56671;BME280;42545;50.054;8.306;2023-04-08T01:08:54;100369.53;;;5.93;100.00
56671;BME280;42545;50.054;8.306;2023-04-08T01:11:24;100363.34;;;5.91;100.00
56671;BME280;42545;50.054;8.306;2023-04-08T01:13:53;100370.25;;;5.89;100.00
56671;BME280;42545;50.054;8.306;2023-04-08T01:16:24;100368.47;;;5.88;100.00
56671;BME280;42545;50.054;8.306;2023-04-08T01:18:52;100354.03;;;5.76;100.00
56671;BME280;42545;50.054;8.306;2023-04-08T01:21:22;100368.41;;;5.86;100.00
56671;BME280;42545;50.054;8.306;2023-04-08T01:23:57;100370.19;;;5.87;100.00
56671;BME280;42545;50.054;8.306;2023-04-08T01:26:28;100363.03;;;5.83;100.00
56671;BME280;42545;50.054;8.306;2023-04-08T01:28:56;100367.56;;;5.87;100.00
56671;BME280;42545;50.054;8.306;2023-04-08T01:31:25;100364.88;;;5.86;100.00
56671;BME280;42545;50.054;8.306;2023-04-08T01:34:00;100368.47;;;5.88;100.00
56671;BME280;42545;50.054;8.306;2023-04-08T01:36:30;100365.00;;;5.89;100.00
56671;BME280;42545;50.054;8.306;2023-04-08T01:38:58;100360.66;;;5.89;100.00
56671;BME280;42545;50.054;8.306;2023-04-08T01:41:28;100362.31;;;5.87;100.00
56671;BME280;42545;50.054;8.306;2023-04-08T01:43:56;100358.03;;;5.89;100.00
56671;BME280;42545;50.054;8.306;2023-04-08T01:46:24;100365.06;;;5.90;100.00
56671;BME280;42545;50.054;8.306;2023-04-08T01:48:53;100367.69;;;5.90;100.00
56671;BME280;42545;50.054;8.306;2023-04-08T01:51:21;100365.97;;;5.91;100.00
56671;BME280;42545;50.054;8.306;2023-04-08T01:53:48;100369.50;;;5.91;100.00
56671;BME280;42545;50.054;8.306;2023-04-08T01:56:15;100361.50;;;5.88;100.00
56671;BME280;42545;50.054;8.306;2023-04-08T01:58:47;100362.53;;;5.92;100.00
56671;BME280;42545;50.054;8.306;2023-04-08T02:01:20;100365.06;;;5.90;100.00
56671;BME280;42545;50.054;8.306;2023-04-08T02:03:49;100369.44;;;5.90;100.00
56671;BME280;42545;50.054;8.306;2023-04-08T02:06:16;100371.13;;;5.89;100.00
56671;BME280;42545;50.054;8.306;2023-04-08T02:08:43;100365.88;;;5.89;100.00
56671;BME280;42545;50.054;8.306;2023-04-08T02:11:10;100369.38;;;5.88;100.00
56671;BME280;42545;50.054;8.306;2023-04-08T02:13:37;100364.19;;;5.90;100.00
56671;BME280;42545;50.054;8.306;2023-04-08T02:16:13;100362.38;;;5.89;100.00
56671;BME280;42545;50.054;8.306;2023-04-08T02:18:42;100366.75;;;5.88;100.00
56671;BME280;42545;50.054;8.306;2023-04-08T02:21:14;100363.25;;;5.88;100.00
56671;BME280;42545;50.054;8.306;2023-04-08T02:23:41;100369.28;;;5.87;100.00
56671;BME280;42545;50.054;8.306;2023-04-08T02:26:12;100374.53;;;5.87;100.00
56671;BME280;42545;50.054;8.306;2023-04-08T02:28:40;100366.59;;;5.85;100.00
56671;BME280;42545;50.054;8.306;2023-04-08T02:31:11;100375.31;;;5.84;100.00
56671;BME280;42545;50.054;8.306;2023-04-08T02:33:38;100372.56;;;5.81;100.00
56671;BME280;42545;50.054;8.306;2023-04-08T02:36:06;100372.25;;;5.73;100.00
56671;BME280;42545;50.054;8.306;2023-04-08T02:38:34;100371.97;;;5.67;100.00
56671;BME280;42545;50.054;8.306;2023-04-08T02:41:00;100373.50;;;5.62;100.00
56671;BME280;42545;50.054;8.306;2023-04-08T02:43:27;100380.03;;;5.51;100.00
56671;BME280;42545;50.054;8.306;2023-04-08T02:45:56;100372.06;;;5.48;100.00
56671;BME280;42545;50.054;8.306;2023-04-08T02:48:26;100381.31;;;5.39;100.00
56671;BME280;42545;50.054;8.306;2023-04-08T02:50:52;100381.94;;;5.34;100.00
56671;BME280;42545;50.054;8.306;2023-04-08T02:53:21;100374.59;;;5.25;100.00
56671;BME280;42545;50.054;8.306;2023-04-08T02:55:48;100381.47;;;5.23;100.00
56671;BME280;42545;50.054;8.306;2023-04-08T02:58:15;100382.25;;;5.20;100.00
56671;BME280;42545;50.054;8.306;2023-04-08T03:00:42;100394.31;;;5.17;100.00
56671;BME280;42545;50.054;8.306;2023-04-08T03:03:09;100389.00;;;5.15;100.00
56671;BME280;42545;50.054;8.306;2023-04-08T03:05:37;100387.41;;;5.19;100.00
56671;BME280;42545;50.054;8.306;2023-04-08T03:08:03;100385.97;;;5.26;100.00
56671;BME280;42545;50.054;8.306;2023-04-08T03:10:31;100385.19;;;5.28;100.00
56671;BME280;42545;50.054;8.306;2023-04-08T03:12:57;100380.91;;;5.30;100.00
56671;BME280;42545;50.054;8.306;2023-04-08T03:15:24;100388.00;;;5.33;100.00
56671;BME280;42545;50.054;8.306;2023-04-08T03:17:51;100388.84;;;5.32;100.00
56671;BME280;42545;50.054;8.306;2023-04-08T03:20:18;100391.31;;;5.29;100.00
56671;BME280;42545;50.054;8.306;2023-04-08T03:22:46;100391.25;;;5.27;100.00
56671;BME280;42545;50.054;8.306;2023-04-08T03:25:13;100402.28;;;5.20;100.00
56671;BME280;42545;50.054;8.306;2023-04-08T03:27:40;100394.03;;;5.11;100.00
56671;BME280;42545;50.054;8.306;2023-04-08T03:30:07;100395.44;;;5.03;100.00
56671;BME280;42545;50.054;8.306;2023-04-08T03:32:34;100405.47;;;4.93;100.00
56671;BME280;42545;50.054;8.306;2023-04-08T03:35:01;100404.22;;;4.85;100.00
56671;BME280;42545;50.054;8.306;2023-04-08T03:37:28;100407.38;;;4.78;100.00
56671;BME280;42545;50.054;8.306;2023-04-08T03:39:56;100407.91;;;4.69;100.00
56671;BME280;42545;50.054;8.306;2023-04-08T03:42:23;100410.13;;;4.61;100.00
56671;BME280;42545;50.054;8.306;2023-04-08T03:44:50;100409.06;;;4.56;100.00
56671;BME280;42545;50.054;8.306;2023-04-08T03:47:17;100406.38;;;4.55;100.00
56671;BME280;42545;50.054;8.306;2023-04-08T03:49:43;100414.41;;;4.59;100.00
56671;BME280;42545;50.054;8.306;2023-04-08T03:52:10;100414.69;;;4.66;100.00
56671;BME280;42545;50.054;8.306;2023-04-08T03:54:36;100418.38;;;4.71;100.00
56671;BME280;42545;50.054;8.306;2023-04-08T03:57:05;100411.66;;;4.76;100.00
56671;BME280;42545;50.054;8.306;2023-04-08T03:59:31;100413.53;;;4.78;100.00
56671;BME280;42545;50.054;8.306;2023-04-08T04:02:00;100423.31;;;4.82;100.00
56671;BME280;42545;50.054;8.306;2023-04-08T04:04:27;100422.41;;;4.82;100.00
56671;BME280;42545;50.054;8.306;2023-04-08T04:06:54;100424.03;;;4.80;100.00
56671;BME280;42545;50.054;8.306;2023-04-08T04:09:20;100416.81;;;4.74;100.00
56671;BME280;42545;50.054;8.306;2023-04-08T04:11:47;100412.34;;;4.72;100.00
56671;BME280;42545;50.054;8.306;2023-04-08T04:14:15;100423.50;;;4.68;100.00
56671;BME280;42545;50.054;8.306;2023-04-08T04:16:41;100422.31;;;4.61;100.00
56671;BME280;42545;50.054;8.306;2023-04-08T04:19:09;100419.44;;;4.55;100.00
56671;BME280;42545;50.054;8.306;2023-04-08T04:21:37;100420.78;;;4.47;100.00
56671;BME280;42545;50.054;8.306;2023-04-08T04:24:04;100426.47;;;4.38;100.00
56671;BME280;42545;50.054;8.306;2023-04-08T04:26:31;100421.75;;;4.31;100.00
56671;BME280;42545;50.054;8.306;2023-04-08T04:28:58;100425.75;;;4.22;100.00
56671;BME280;42545;50.054;8.306;2023-04-08T04:31:26;100435.81;;;4.15;100.00
56671;BME280;42545;50.054;8.306;2023-04-08T04:33:52;100425.81;;;4.06;100.00
56671;BME280;42545;50.054;8.306;2023-04-08T04:36:19;100429.94;;;4.01;100.00
56671;BME280;42545;50.054;8.306;2023-04-08T04:38:46;100434.03;;;3.96;100.00
56671;BME280;42545;50.054;8.306;2023-04-08T04:41:12;100436.44;;;3.91;100.00
56671;BME280;42545;50.054;8.306;2023-04-08T04:43:39;100431.22;;;3.91;100.00
56671;BME280;42545;50.054;8.306;2023-04-08T04:46:06;100426.72;;;3.89;100.00
56671;BME280;42545;50.054;8.306;2023-04-08T04:48:34;100441.66;;;3.91;100.00
56671;BME280;42545;50.054;8.306;2023-04-08T04:51:01;100434.63;;;3.90;100.00
56671;BME280;42545;50.054;8.306;2023-04-08T04:53:28;100418.31;;;3.76;100.00
56671;BME280;42545;50.054;8.306;2023-04-08T04:55:55;100441.31;;;3.85;100.00
56671;BME280;42545;50.054;8.306;2023-04-08T04:58:22;100439.31;;;3.79;100.00
56671;BME280;42545;50.054;8.306;2023-04-08T05:00:49;100446.84;;;3.73;100.00
56671;BME280;42545;50.054;8.306;2023-04-08T05:03:16;100445.63;;;3.66;100.00
56671;BME280;42545;50.054;8.306;2023-04-08T05:05:48;100447.06;;;3.60;100.00
56671;BME280;42545;50.054;8.306;2023-04-08T05:08:15;100446.00;;;3.56;100.00
56671;BME280;42545;50.054;8.306;2023-04-08T05:10:42;100445.09;;;3.56;100.00
56671;BME280;42545;50.054;8.306;2023-04-08T05:13:09;100444.19;;;3.55;100.00
56671;BME280;42545;50.054;8.306;2023-04-08T05:15:36;100445.94;;;3.55;100.00
56671;BME280;42545;50.054;8.306;2023-04-08T05:18:03;100441.44;;;3.52;100.00
56671;BME280;42545;50.054;8.306;2023-04-08T05:20:30;100457.03;;;3.51;100.00
56671;BME280;42545;50.054;8.306;2023-04-08T05:22:58;100455.97;;;3.47;100.00
56671;BME280;42545;50.054;8.306;2023-04-08T05:25:25;100467.13;;;3.44;100.00
56671;BME280;42545;50.054;8.306;2023-04-08T05:27:51;100464.44;;;3.43;100.00
56671;BME280;42545;50.054;8.306;2023-04-08T05:30:19;100462.75;;;3.43;100.00
56671;BME280;42545;50.054;8.306;2023-04-08T05:32:45;100468.75;;;3.42;100.00
56671;BME280;42545;50.054;8.306;2023-04-08T05:35:12;100464.38;;;3.41;100.00
56671;BME280;42545;50.054;8.306;2023-04-08T05:37:39;100466.00;;;3.39;100.00
56671;BME280;42545;50.054;8.306;2023-04-08T05:40:08;100470.50;;;3.42;100.00
56671;BME280;42545;50.054;8.306;2023-04-08T05:42:35;100464.53;;;3.44;100.00
56671;BME280;42545;50.054;8.306;2023-04-08T05:45:02;100467.47;;;3.51;100.00
56671;BME280;42545;50.054;8.306;2023-04-08T05:47:30;100465.00;;;3.54;100.00
56671;BME280;42545;50.054;8.306;2023-04-08T05:49:56;100466.22;;;3.60;100.00
56671;BME280;42545;50.054;8.306;2023-04-08T05:52:23;100471.22;;;3.74;100.00
56671;BME280;42545;50.054;8.306;2023-04-08T05:54:49;100475.94;;;3.81;100.00
56671;BME280;42545;50.054;8.306;2023-04-08T05:57:18;100484.00;;;3.85;100.00
56671;BME280;42545;50.054;8.306;2023-04-08T05:59:44;100481.94;;;3.96;100.00
56671;BME280;42545;50.054;8.306;2023-04-08T06:02:11;100482.16;;;4.01;100.00
56671;BME280;42545;50.054;8.306;2023-04-08T06:04:38;100493.72;;;4.06;100.00
56671;BME280;42545;50.054;8.306;2023-04-08T06:07:06;100492.38;;;4.14;100.00
56671;BME280;42545;50.054;8.306;2023-04-08T06:09:34;100490.06;;;4.20;100.00
56671;BME280;42545;50.054;8.306;2023-04-08T06:12:01;100493.81;;;4.26;100.00
56671;BME280;42545;50.054;8.306;2023-04-08T06:14:29;100494.03;;;4.30;100.00
56671;BME280;42545;50.054;8.306;2023-04-08T06:16:56;100497.75;;;4.35;100.00
56671;BME280;42545;50.054;8.306;2023-04-08T06:19:22;100500.44;;;4.37;100.00
56671;BME280;42545;50.054;8.306;2023-04-08T06:21:49;100501.66;;;4.43;100.00
56671;BME280;42545;50.054;8.306;2023-04-08T06:24:16;100509.78;;;4.50;100.00
56671;BME280;42545;50.054;8.306;2023-04-08T06:26:43;100509.97;;;4.54;100.00
56671;BME280;42545;50.054;8.306;2023-04-08T06:29:09;100515.50;;;4.60;100.00
56671;BME280;42545;50.054;8.306;2023-04-08T06:31:38;100501.56;;;4.60;100.00
56671;BME280;42545;50.054;8.306;2023-04-08T06:34:04;100513.78;;;4.61;100.00
56671;BME280;42545;50.054;8.306;2023-04-08T06:36:31;100507.53;;;4.57;100.00
56671;BME280;42545;50.054;8.306;2023-04-08T06:38:58;100514.03;;;4.66;100.00
56671;BME280;42545;50.054;8.306;2023-04-08T06:41:25;100512.13;;;4.63;100.00
56671;BME280;42545;50.054;8.306;2023-04-08T06:43:52;100520.94;;;4.65;100.00
56671;BME280;42545;50.054;8.306;2023-04-08T06:46:19;100516.63;;;4.66;100.00
56671;BME280;42545;50.054;8.306;2023-04-08T06:48:47;100520.34;;;4.71;100.00
56671;BME280;42545;50.054;8.306;2023-04-08T06:51:14;100527.53;;;4.75;100.00
56671;BME280;42545;50.054;8.306;2023-04-08T06:53:40;100532.88;;;4.78;100.00
56671;BME280;42545;50.054;8.306;2023-04-08T06:56:07;100540.09;;;4.84;100.00
56671;BME280;42545;50.054;8.306;2023-04-08T06:58:34;100541.22;;;4.89;100.00
56671;BME280;42545;50.054;8.306;2023-04-08T07:01:00;100542.41;;;4.95;100.00
56671;BME280;42545;50.054;8.306;2023-04-08T07:03:27;100542.78;;;5.03;100.00
56671;BME280;42545;50.054;8.306;2023-04-08T07:05:56;100537.84;;;5.09;100.00
56671;BME280;42545;50.054;8.306;2023-04-08T07:08:22;100547.97;;;5.21;100.00
56671;BME280;42545;50.054;8.306;2023-04-08T07:10:51;100543.00;;;5.27;100.00
56671;BME280;42545;50.054;8.306;2023-04-08T07:13:18;100544.34;;;5.37;100.00
56671;BME280;42545;50.054;8.306;2023-04-08T07:15:44;100550.88;;;5.47;100.00
56671;BME280;42545;50.054;8.306;2023-04-08T07:18:12;100547.75;;;5.55;100.00
56671;BME280;42545;50.054;8.306;2023-04-08T07:20:39;100553.47;;;5.66;100.00
56671;BME280;42545;50.054;8.306;2023-04-08T07:23:08;100553.88;;;5.75;100.00
56671;BME280;42545;50.054;8.306;2023-04-08T07:25:35;100557.72;;;5.84;100.00
56671;BME280;42545;50.054;8.306;2023-04-08T07:28:02;100554.53;;;5.91;100.00
56671;BME280;42545;50.054;8.306;2023-04-08T07:30:29;100561.94;;;6.00;100.00
56671;BME280;42545;50.054;8.306;2023-04-08T07:32:55;100554.31;;;6.06;100.00
56671;BME280;42545;50.054;8.306;2023-04-08T07:35:24;100554.66;;;6.13;100.00
56671;BME280;42545;50.054;8.306;2023-04-08T07:37:52;100555.16;;;6.26;100.00
56671;BME280;42545;50.054;8.306;2023-04-08T07:40:20;100554.72;;;6.36;100.00
56671;BME280;42545;50.054;8.306;2023-04-08T07:42:47;100564.75;;;6.46;100.00
56671;BME280;42545;50.054;8.306;2023-04-08T07:45:14;100552.03;;;6.56;100.00
56671;BME280;42545;50.054;8.306;2023-04-08T07:47:41;100551.69;;;6.69;100.00
56671;BME280;42545;50.054;8.306;2023-04-08T07:50:08;100557.94;;;6.72;100.00
56671;BME280;42545;50.054;8.306;2023-04-08T07:52:34;100550.22;;;6.76;100.00
56671;BME280;42545;50.054;8.306;2023-04-08T07:55:02;100559.09;;;6.79;100.00
56671;BME280;42545;50.054;8.306;2023-04-08T07:57:31;100552.25;;;6.83;100.00
56671;BME280;42545;50.054;8.306;2023-04-08T07:59:58;100562.19;;;6.91;100.00
56671;BME280;42545;50.054;8.306;2023-04-08T08:02:24;100573.81;;;6.98;100.00
56671;BME280;42545;50.054;8.306;2023-04-08T08:04:51;100570.66;;;7.07;100.00
56671;BME280;42545;50.054;8.306;2023-04-08T08:07:18;100572.75;;;7.16;100.00
56671;BME280;42545;50.054;8.306;2023-04-08T08:09:44;100570.22;;;7.19;100.00
56671;BME280;42545;50.054;8.306;2023-04-08T08:12:11;100570.22;;;7.19;100.00
56671;BME280;42545;50.054;8.306;2023-04-08T08:14:39;100573.84;;;7.22;100.00
56671;BME280;42545;50.054;8.306;2023-04-08T08:17:06;100585.44;;;7.27;100.00
56671;BME280;42545;50.054;8.306;2023-04-08T08:19:33;100580.31;;;7.30;100.00
56671;BME280;42545;50.054;8.306;2023-04-08T08:22:00;100581.25;;;7.32;99.92
56671;BME280;42545;50.054;8.306;2023-04-08T08:24:27;100591.97;;;7.39;100.00
56671;BME280;42545;50.054;8.306;2023-04-08T08:26:53;100595.69;;;7.44;99.91
56671;BME280;42545;50.054;8.306;2023-04-08T08:29:20;100591.38;;;7.46;100.00
56671;BME280;42545;50.054;8.306;2023-04-08T08:31:50;100594.25;;;7.52;99.53
56671;BME280;42545;50.054;8.306;2023-04-08T08:34:17;100600.44;;;7.54;98.86
56671;BME280;42545;50.054;8.306;2023-04-08T08:36:43;100598.66;;;7.53;98.08
56671;BME280;42545;50.054;8.306;2023-04-08T08:39:10;100610.03;;;7.54;97.64
56671;BME280;42545;50.054;8.306;2023-04-08T08:41:37;100604.69;;;7.50;96.37
56671;BME280;42545;50.054;8.306;2023-04-08T08:44:10;100611.97;;;7.58;98.01
56671;BME280;42545;50.054;8.306;2023-04-08T08:46:42;100609.44;;;7.61;98.03
56671;BME280;42545;50.054;8.306;2023-04-08T08:49:11;100608.72;;;7.65;98.56
56671;BME280;42545;50.054;8.306;2023-04-08T08:51:39;100619.38;;;7.69;98.60
56671;BME280;42545;50.054;8.306;2023-04-08T08:54:06;100616.88;;;7.73;98.15
56671;BME280;42545;50.054;8.306;2023-04-08T08:56:32;100615.16;;;7.73;97.49
56671;BME280;42545;50.054;8.306;2023-04-08T08:58:59;100624.72;;;7.71;97.71
56671;BME280;42545;50.054;8.306;2023-04-08T09:01:33;100614.06;;;7.68;97.23
56671;BME280;42545;50.054;8.306;2023-04-08T09:04:24;100621.00;;;7.66;97.56
56671;BME280;42545;50.054;8.306;2023-04-08T09:07:07;100623.69;;;7.67;97.46
56671;BME280;42545;50.054;8.306;2023-04-08T09:09:47;100625.44;;;7.67;97.71
56671;BME280;42545;50.054;8.306;2023-04-08T09:12:14;100623.69;;;7.67;98.11
56671;BME280;42545;50.054;8.306;2023-04-08T09:14:41;100624.72;;;7.71;98.27
56671;BME280;42545;50.054;8.306;2023-04-08T09:17:08;100630.03;;;7.73;98.24
56671;BME280;42545;50.054;8.306;2023-04-08T09:19:37;100632.66;;;7.73;98.10
56671;BME280;42545;50.054;8.306;2023-04-08T09:22:05;100630.84;;;7.72;98.02
56671;BME280;42545;50.054;8.306;2023-04-08T09:24:32;100634.41;;;7.74;98.19
56671;BME280;42545;50.054;8.306;2023-04-08T09:26:59;100642.16;;;7.69;97.70
56671;BME280;42545;50.054;8.306;2023-04-08T09:29:26;100643.91;;;7.70;97.77
56671;BME280;42545;50.054;8.306;2023-04-08T09:31:53;100640.34;;;7.68;97.29
56671;BME280;42545;50.054;8.306;2023-04-08T09:34:21;100640.34;;;7.68;97.53
56671;BME280;42545;50.054;8.306;2023-04-08T09:36:49;100638.63;;;7.68;97.61
56671;BME280;42545;50.054;8.306;2023-04-08T09:39:16;100643.03;;;7.69;97.12
56671;BME280;42545;50.054;8.306;2023-04-08T09:41:43;100639.53;;;7.69;97.23
56671;BME280;42545;50.054;8.306;2023-04-08T09:44:14;100644.84;;;7.70;97.68
56671;BME280;42545;50.054;8.306;2023-04-08T09:46:49;100645.72;;;7.71;97.23
56671;BME280;42545;50.054;8.306;2023-04-08T09:49:25;100641.28;;;7.70;97.37
56671;BME280;42545;50.054;8.306;2023-04-08T09:51:58;100642.16;;;7.69;97.17
56671;BME280;42545;50.054;8.306;2023-04-08T09:54:33;100644.84;;;7.70;96.53
56671;BME280;42545;50.054;8.306;2023-04-08T09:57:03;100649.16;;;7.70;96.68
56671;BME280;42545;50.054;8.306;2023-04-08T09:59:33;100660.66;;;7.72;96.42
56671;BME280;42545;50.054;8.306;2023-04-08T10:02:06;100656.38;;;7.76;96.28
56671;BME280;42545;50.054;8.306;2023-04-08T10:04:38;100657.38;;;7.78;96.08
56671;BME280;42545;50.054;8.306;2023-04-08T10:07:09;100657.50;;;7.82;96.10
56671;BME280;42545;50.054;8.306;2023-04-08T10:09:35;100652.38;;;7.85;95.67
56671;BME280;42545;50.054;8.306;2023-04-08T10:12:05;100657.63;;;7.85;94.05
56671;BME280;42545;50.054;8.306;2023-04-08T10:14:32;100652.53;;;7.90;93.79
56671;BME280;42545;50.054;8.306;2023-04-08T10:17:22;100655.97;;;7.87;91.10
56671;BME280;42545;50.054;8.306;2023-04-08T10:19:50;100648.00;;;7.86;91.19
56671;BME280;42545;50.054;8.306;2023-04-08T10:22:46;100645.72;;;7.95;91.18
56671;BME280;42545;50.054;8.306;2023-04-08T10:25:30;100630.97;;;7.99;89.83
56671;BME280;42545;50.054;8.306;2023-04-08T10:27:58;100636.72;;;8.13;90.05
56671;BME280;42545;50.054;8.306;2023-04-08T10:30:38;100639.00;;;8.27;89.70
56671;BME280;42545;50.054;8.306;2023-04-08T10:33:09;100636.03;;;8.42;87.24
56671;BME280;42545;50.054;8.306;2023-04-08T10:35:37;100634.75;;;8.57;86.66
56671;BME280;42545;50.054;8.306;2023-04-08T10:38:07;100630.75;;;8.68;85.33
56671;BME280;42545;50.054;8.306;2023-04-08T10:40:36;100638.13;;;8.78;83.78
56671;BME280;42545;50.054;8.306;2023-04-08T10:43:06;100634.91;;;8.87;82.46
56671;BME280;42545;50.054;8.306;2023-04-08T10:45:33;100640.28;;;8.92;81.64
56671;BME280;42545;50.054;8.306;2023-04-08T10:48:11;100635.38;;;9.02;80.13
56671;BME280;42545;50.054;8.306;2023-04-08T10:50:37;100623.31;;;9.09;79.94
56671;BME280;42545;50.054;8.306;2023-04-08T10:53:06;100633.22;;;9.18;78.13
56671;BME280;42545;50.054;8.306;2023-04-08T10:55:33;100635.97;;;9.21;77.23
56671;BME280;42545;50.054;8.306;2023-04-08T10:58:04;100628.09;;;9.22;77.46
56671;BME280;42545;50.054;8.306;2023-04-08T11:00:33;100627.44;;;9.30;75.76
56671;BME280;42545;50.054;8.306;2023-04-08T11:03:00;100632.00;;;9.35;76.65
56671;BME280;42545;50.054;8.306;2023-04-08T11:05:28;100623.56;;;9.46;76.12
56671;BME280;42545;50.054;8.306;2023-04-08T11:07:55;100634.25;;;9.52;75.26
56671;BME280;42545;50.054;8.306;2023-04-08T11:10:23;100629.03;;;9.53;74.71
56671;BME280;42545;50.054;8.306;2023-04-08T11:12:52;100632.56;;;9.54;74.33
56671;BME280;42545;50.054;8.306;2023-04-08T11:15:19;100620.94;;;9.47;73.86
56671;BME280;42545;50.054;8.306;2023-04-08T11:17:46;100630.09;;;9.58;74.27
56671;BME280;42545;50.054;8.306;2023-04-08T11:20:13;100628.66;;;9.70;74.98
56671;BME280;42545;50.054;8.306;2023-04-08T11:22:40;100635.22;;;9.84;74.59
56671;BME280;42545;50.054;8.306;2023-04-08T11:25:07;100629.44;;;9.97;73.76
56671;BME280;42545;50.054;8.306;2023-04-08T11:27:36;100619.13;;;10.07;72.78
56671;BME280;42545;50.054;8.306;2023-04-08T11:30:05;100626.50;;;10.20;72.72
56671;BME280;42545;50.054;8.306;2023-04-08T11:32:32;100621.91;;;10.43;73.91
56671;BME280;42545;50.054;8.306;2023-04-08T11:35:00;100620.59;;;10.62;73.51
56671;BME280;42545;50.054;8.306;2023-04-08T11:37:35;100625.91;;;10.99;70.48
56671;BME280;42545;50.054;8.306;2023-04-08T11:40:06;100622.66;;;11.10;68.15
56671;BME280;42545;50.054;8.306;2023-04-08T11:42:33;100612.19;;;11.15;67.13
56671;BME280;42545;50.054;8.306;2023-04-08T11:45:08;100619.53;;;11.27;66.84
56671;BME280;42545;50.054;8.306;2023-04-08T11:47:37;100602.00;;;11.30;67.10
56671;BME280;42545;50.054;8.306;2023-04-08T11:50:07;100613.84;;;11.49;67.48
56671;BME280;42545;50.054;8.306;2023-04-08T11:52:41;100608.38;;;11.83;67.53
56671;BME280;42545;50.054;8.306;2023-04-08T11:55:08;100606.00;;;11.95;67.14
56671;BME280;42545;50.054;8.306;2023-04-08T11:57:36;100606.16;;;12.04;66.28
56671;BME280;42545;50.054;8.306;2023-04-08T12:00:05;100598.06;;;11.95;66.29
56671;BME280;42545;50.054;8.306;2023-04-08T12:02:34;100600.56;;;11.89;66.35
56671;BME280;42545;50.054;8.306;2023-04-08T12:05:00;100594.25;;;11.82;66.40
56671;BME280;42545;50.054;8.306;2023-04-08T12:07:28;100580.94;;;11.76;65.93
56671;BME280;42545;50.054;8.306;2023-04-08T12:09:57;100588.94;;;11.81;67.63
56671;BME280;42545;50.054;8.306;2023-04-08T12:12:23;100593.50;;;11.89;67.37
56671;BME280;42545;50.054;8.306;2023-04-08T12:14:51;100594.28;;;11.84;65.61
56671;BME280;42545;50.054;8.306;2023-04-08T12:17:20;100593.13;;;11.69;65.01
56671;BME280;42545;50.054;8.306;2023-04-08T12:19:47;100592.94;;;11.60;65.58
56671;BME280;42545;50.054;8.306;2023-04-08T12:22:14;100589.38;;;11.58;66.13
56671;BME280;42545;50.054;8.306;2023-04-08T12:24:41;100588.53;;;11.59;66.63
56671;BME280;42545;50.054;8.306;2023-04-08T12:27:08;100596.44;;;11.61;66.30
56671;BME280;42545;50.054;8.306;2023-04-08T12:29:35;100589.31;;;11.57;66.80
56671;BME280;42545;50.054;8.306;2023-04-08T12:32:01;100593.69;;;11.54;67.37
56671;BME280;42545;50.054;8.306;2023-04-08T12:34:31;100591.91;;;11.53;66.67
56671;BME280;42545;50.054;8.306;2023-04-08T12:36:58;100593.69;;;11.54;67.04
56671;BME280;42545;50.054;8.306;2023-04-08T12:39:25;100589.31;;;11.57;67.74
56671;BME280;42545;50.054;8.306;2023-04-08T12:41:52;100591.88;;;11.52;67.28
56671;BME280;42545;50.054;8.306;2023-04-08T12:44:19;100596.25;;;11.51;66.49
56671;BME280;42545;50.054;8.306;2023-04-08T12:46:45;100587.38;;;11.48;66.78
56671;BME280;42545;50.054;8.306;2023-04-08T12:49:12;100599.81;;;11.53;66.64
56671;BME280;42545;50.054;8.306;2023-04-08T12:51:40;100588.47;;;11.58;67.19
56671;BME280;42545;50.054;8.306;2023-04-08T12:54:07;100586.75;;;11.60;67.03
56671;BME280;42545;50.054;8.306;2023-04-08T12:56:34;100589.50;;;11.66;67.03
56671;BME280;42545;50.054;8.306;2023-04-08T12:59:01;100583.44;;;11.70;65.78